createdAt,value
2023-02-18T00:01:23.558Z,17.48
2023-02-18T00:03:51.017Z,18.98
2023-02-18T00:06:39.914Z,18.13
2023-02-18T00:09:07.086Z,17.52
2023-02-18T00:11:37.245Z,18.15
2023-02-18T00:14:06.958Z,18.85
2023-02-18T00:16:33.682Z,18.30
2023-02-18T00:19:03.713Z,17.67
2023-02-18T00:21:32.368Z,17.60
2023-02-18T00:23:59.097Z,18.20
2023-02-18T00:26:26.078Z,17.58
2023-02-18T00:28:53.177Z,18.25
2023-02-18T00:31:31.452Z,17.90
2023-02-18T00:33:59.267Z,17.85
2023-02-18T00:36:26.568Z,17.63
2023-02-18T00:38:58.423Z,17.02
2023-02-18T00:41:29.217Z,18.02
2023-02-18T00:43:58.108Z,17.20
2023-02-18T00:46:27.963Z,16.92
2023-02-18T00:48:55.019Z,17.08
2023-02-18T00:51:25.429Z,16.83
2023-02-18T00:53:54.769Z,16.48
2023-02-18T00:56:23.764Z,17.33
2023-02-18T00:58:53.218Z,17.40
2023-02-18T01:01:22.410Z,16.50
2023-02-18T01:03:49.773Z,16.83
2023-02-18T01:06:16.588Z,18.27
2023-02-18T01:08:45.960Z,17.60
2023-02-18T01:11:12.924Z,16.98
2023-02-18T01:13:40.599Z,17.25
2023-02-18T01:16:08.479Z,17.45
2023-02-18T01:18:35.635Z,17.48
2023-02-18T01:21:02.259Z,17.33
2023-02-18T01:23:31.434Z,18.27
2023-02-18T01:25:58.773Z,18.38
2023-02-18T01:28:26.039Z,17.20
2023-02-18T01:30:53.769Z,17.13
2023-02-18T01:33:21.044Z,17.75
2023-02-18T01:35:47.923Z,18.58
2023-02-18T01:38:16.748Z,18.38
2023-02-18T01:40:51.407Z,17.75
2023-02-18T01:43:21.167Z,17.60
2023-02-18T01:45:50.730Z,17.25
2023-02-18T01:48:45.991Z,18.45
2023-02-18T01:51:14.328Z,18.40
2023-02-18T01:53:53.572Z,19.42
2023-02-18T01:56:27.905Z,20.13
2023-02-18T01:58:56.959Z,19.95
2023-02-18T02:01:25.929Z,18.63
2023-02-18T02:03:55.079Z,20.05
2023-02-18T02:06:23.716Z,19.92
2023-02-18T02:08:53.061Z,20.85
2023-02-18T02:11:52.629Z,22.25
2023-02-18T02:14:30.987Z,20.80
2023-02-18T02:17:07.563Z,21.33
2023-02-18T02:20:11.808Z,23.38
2023-02-18T02:23:02.414Z,23.95
2023-02-18T02:25:32.126Z,23.80
2023-02-18T02:28:16.679Z,26.42
2023-02-18T02:30:52.243Z,24.60
2023-02-18T02:33:47.232Z,24.33
2023-02-18T02:36:24.117Z,24.88
2023-02-18T02:39:05.771Z,27.05
2023-02-18T02:42:18.792Z,23.90
2023-02-18T02:44:56.336Z,24.75
2023-02-18T02:47:47.338Z,25.45
2023-02-18T02:50:25.350Z,27.70
2023-02-18T02:52:58.684Z,23.88
2023-02-18T02:55:25.776Z,22.85
2023-02-18T02:57:55.204Z,24.60
2023-02-18T03:00:32.440Z,25.35
2023-02-18T03:03:10.935Z,26.80
2023-02-18T03:06:14.455Z,25.08
2023-02-18T03:08:44.069Z,26.02
2023-02-18T03:11:15.897Z,24.55
2023-02-18T03:14:01.969Z,23.65
2023-02-18T03:16:47.674Z,22.05
2023-02-18T03:19:25.841Z,19.92
2023-02-18T03:21:59.423Z,18.48
2023-02-18T03:24:39.593Z,15.48
2023-02-18T03:27:16.124Z,15.45
2023-02-18T03:29:48.269Z,14.77
2023-02-18T03:32:21.321Z,12.25
2023-02-18T03:34:53.311Z,11.07
2023-02-18T03:37:20.857Z,10.45
2023-02-18T03:39:53.583Z,11.23
2023-02-18T03:42:20.179Z,9.45
2023-02-18T03:44:46.755Z,8.73
2023-02-18T03:47:13.428Z,8.65
2023-02-18T03:49:42.965Z,7.60
2023-02-18T03:52:09.558Z,7.53
2023-02-18T03:54:36.112Z,7.32
2023-02-18T03:57:03.337Z,7.20
2023-02-18T03:59:32.234Z,7.53
2023-02-18T04:01:58.741Z,7.13
2023-02-18T04:04:25.358Z,7.13
2023-02-18T04:06:51.983Z,6.05
2023-02-18T04:09:20.948Z,5.93
2023-02-18T04:11:47.480Z,6.00
2023-02-18T04:14:14.798Z,5.50
2023-02-18T04:16:41.887Z,4.93
2023-02-18T04:19:11.056Z,5.28
2023-02-18T04:21:37.636Z,5.35
2023-02-18T04:24:06.368Z,5.03
2023-02-18T04:26:33.006Z,4.60
2023-02-18T04:28:59.569Z,5.05
2023-02-18T04:31:31.283Z,5.55
2023-02-18T04:33:57.939Z,4.68
2023-02-18T04:36:24.465Z,4.90
2023-02-18T04:38:53.261Z,4.30
2023-02-18T04:41:19.873Z,5.13
2023-02-18T04:43:48.717Z,4.72
2023-02-18T04:46:15.281Z,5.10
2023-02-18T04:48:41.844Z,5.78
2023-02-18T04:51:08.577Z,5.30
2023-02-18T04:53:37.414Z,6.40
2023-02-18T04:56:06.935Z,6.35
2023-02-18T04:58:36.036Z,6.47
2023-02-18T05:01:04.753Z,7.28
2023-02-18T05:03:32.100Z,6.40
2023-02-18T05:05:59.064Z,7.40
2023-02-18T05:08:25.680Z,7.60
2023-02-18T05:10:52.403Z,7.60
2023-02-18T05:13:19.128Z,7.22
2023-02-18T05:15:45.790Z,7.38
2023-02-18T05:18:12.404Z,7.05
2023-02-18T05:20:39.003Z,7.25
2023-02-18T05:23:05.718Z,7.65
2023-02-18T05:25:32.443Z,7.82
2023-02-18T05:28:01.636Z,7.65
2023-02-18T05:30:28.260Z,7.80
2023-02-18T05:32:54.824Z,7.40
2023-02-18T05:35:21.456Z,7.00
2023-02-18T05:37:48.006Z,7.38
2023-02-18T05:40:14.525Z,6.82
2023-02-18T05:42:41.066Z,6.95
2023-02-18T05:45:10.085Z,6.35
2023-02-18T05:47:38.974Z,7.22
2023-02-18T05:50:06.604Z,6.43
2023-02-18T05:52:33.173Z,6.60
2023-02-18T05:54:59.705Z,6.10
2023-02-18T05:57:26.531Z,5.43
2023-02-18T05:59:53.193Z,5.30
2023-02-18T06:02:19.837Z,5.22
2023-02-18T06:04:46.393Z,5.07
2023-02-18T06:07:15.992Z,5.15
2023-02-18T06:09:42.572Z,5.10
2023-02-18T06:12:09.102Z,4.25
2023-02-18T06:14:35.646Z,4.82
2023-02-18T06:17:02.155Z,5.13
2023-02-18T06:19:28.654Z,5.47
2023-02-18T06:21:56.270Z,4.88
2023-02-18T06:24:22.874Z,5.10
2023-02-18T06:26:49.383Z,4.72
2023-02-18T06:29:15.960Z,5.38
2023-02-18T06:31:42.730Z,5.38
2023-02-18T06:34:09.428Z,4.63
2023-02-18T06:36:36.111Z,4.18
2023-02-18T06:39:04.847Z,4.78
2023-02-18T06:41:33.967Z,4.28
2023-02-18T06:44:02.924Z,4.45
2023-02-18T06:46:29.536Z,4.65
2023-02-18T06:48:56.160Z,4.60
2023-02-18T06:51:24.561Z,4.50
2023-02-18T06:53:51.144Z,4.10
2023-02-18T06:56:20.141Z,4.50
2023-02-18T06:58:49.742Z,3.97
2023-02-18T07:01:16.281Z,5.00
2023-02-18T07:03:42.888Z,3.70
2023-02-18T07:06:09.977Z,4.25
2023-02-18T07:08:37.700Z,4.15
2023-02-18T07:11:07.263Z,4.35
2023-02-18T07:13:33.890Z,4.38
2023-02-18T07:16:02.783Z,4.43
2023-02-18T07:18:29.391Z,4.50
2023-02-18T07:20:55.913Z,4.20
2023-02-18T07:23:22.487Z,4.72
2023-02-18T07:25:49.054Z,4.15
2023-02-18T07:28:18.063Z,4.00
2023-02-18T07:30:44.644Z,3.42
2023-02-18T07:33:11.221Z,4.05
2023-02-18T07:35:37.781Z,4.03
2023-02-18T07:38:04.772Z,4.13
2023-02-18T07:40:31.375Z,4.47
2023-02-18T07:43:00.213Z,5.00
2023-02-18T07:45:26.973Z,5.40
2023-02-18T07:47:55.988Z,5.63
2023-02-18T07:50:27.474Z,5.88
2023-02-18T07:52:54.096Z,5.03
2023-02-18T07:55:20.702Z,5.28
2023-02-18T07:58:07.542Z,5.63
2023-02-18T08:00:34.169Z,6.03
2023-02-18T08:03:00.868Z,5.32
2023-02-18T08:05:27.372Z,5.57
2023-02-18T08:07:53.891Z,5.55
2023-02-18T08:10:20.679Z,6.25
2023-02-18T08:12:47.418Z,5.18
2023-02-18T08:15:14.166Z,5.30
2023-02-18T08:17:40.947Z,5.13
2023-02-18T08:20:08.451Z,5.40
2023-02-18T08:22:37.866Z,5.88
2023-02-18T08:25:05.017Z,4.38
2023-02-18T08:27:33.855Z,5.45
2023-02-18T08:30:00.564Z,5.18
2023-02-18T08:32:28.820Z,4.85
2023-02-18T08:35:00.264Z,5.15
2023-02-18T08:37:28.220Z,4.57
2023-02-18T08:39:57.210Z,3.97
2023-02-18T08:42:26.014Z,4.55
2023-02-18T08:44:52.623Z,4.07
2023-02-18T08:48:18.111Z,4.80
2023-02-18T08:50:13.165Z,5.60
2023-02-18T08:52:42.152Z,4.32
2023-02-18T08:55:08.796Z,4.65
2023-02-18T08:57:35.396Z,3.85
2023-02-18T09:00:07.056Z,4.00
2023-02-18T09:02:35.988Z,3.78
2023-02-18T09:05:05.066Z,3.78
2023-02-18T09:07:31.661Z,3.28
2023-02-18T09:09:58.220Z,3.33
2023-02-18T09:12:24.879Z,4.35
2023-02-18T09:14:54.391Z,3.45
2023-02-18T09:17:21.535Z,3.90
2023-02-18T09:19:50.848Z,3.60
2023-02-18T09:22:17.516Z,3.50
2023-02-18T09:24:44.159Z,3.53
2023-02-18T09:27:11.351Z,4.20
2023-02-18T09:29:39.898Z,3.80
2023-02-18T09:32:08.305Z,4.20
2023-02-18T09:34:36.392Z,4.38
2023-02-18T09:37:03.299Z,3.75
2023-02-18T09:39:29.991Z,3.50
2023-02-18T09:42:02.140Z,3.83
2023-02-18T09:44:34.473Z,3.55
2023-02-18T09:47:06.667Z,3.08
2023-02-18T09:49:42.603Z,3.35
2023-02-18T09:52:32.768Z,2.97
2023-02-18T09:55:01.605Z,3.05
2023-02-18T09:57:41.431Z,2.40
2023-02-18T10:00:16.913Z,2.63
2023-02-18T10:02:55.126Z,3.10
2023-02-18T10:05:22.994Z,2.47
2023-02-18T10:07:53.747Z,2.35
2023-02-18T10:10:31.044Z,2.60
2023-02-18T10:13:01.613Z,2.50
2023-02-18T10:15:34.127Z,2.42
2023-02-18T10:18:01.919Z,2.50
2023-02-18T10:20:32.220Z,2.28
2023-02-18T10:23:02.801Z,2.63
2023-02-18T10:25:29.767Z,2.70
2023-02-18T10:27:59.990Z,2.40
2023-02-18T10:31:02.210Z,2.83
2023-02-18T10:33:48.128Z,2.42
2023-02-18T10:36:50.279Z,2.55
2023-02-18T10:39:35.033Z,2.42
2023-02-18T10:42:16.277Z,2.20
2023-02-18T10:45:05.242Z,2.20
2023-02-18T10:47:53.502Z,2.38
2023-02-18T10:50:31.899Z,2.30
2023-02-18T10:53:02.923Z,1.63
2023-02-18T10:55:40.326Z,2.10
2023-02-18T10:58:26.879Z,2.40
2023-02-18T11:00:54.355Z,1.98
2023-02-18T11:03:38.508Z,2.17
2023-02-18T11:06:06.441Z,2.22
2023-02-18T11:08:43.848Z,2.00
2023-02-18T11:11:40.846Z,2.50
2023-02-18T11:14:13.726Z,2.33
2023-02-18T11:16:46.442Z,2.42
2023-02-18T11:19:39.419Z,2.20
2023-02-18T11:22:08.911Z,2.10
2023-02-18T11:24:38.884Z,1.95
2023-02-18T11:27:14.268Z,2.20
2023-02-18T11:29:43.831Z,2.22
2023-02-18T11:32:12.800Z,2.20
2023-02-18T11:34:43.211Z,2.60
2023-02-18T11:37:18.262Z,2.85
2023-02-18T11:39:48.343Z,2.80
2023-02-18T11:42:21.198Z,2.58
2023-02-18T11:44:56.247Z,2.28
2023-02-18T11:47:33.469Z,2.67
2023-02-18T11:50:15.363Z,2.70
2023-02-18T11:52:45.601Z,2.10
2023-02-18T11:55:21.930Z,2.20
2023-02-18T11:58:07.145Z,1.90
2023-02-18T12:00:46.297Z,1.90
2023-02-18T12:03:37.376Z,1.85
2023-02-18T12:06:14.375Z,1.60
2023-02-18T12:08:56.565Z,1.75
2023-02-18T12:11:39.398Z,1.67
2023-02-18T12:14:12.559Z,1.80
2023-02-18T12:17:10.336Z,1.45
2023-02-18T12:20:06.541Z,1.52
2023-02-18T12:22:39.238Z,1.30
2023-02-18T12:25:20.334Z,2.10
2023-02-18T12:27:56.204Z,1.17
2023-02-18T12:30:47.746Z,1.60
2023-02-18T12:33:29.682Z,2.13
2023-02-18T12:36:02.169Z,1.13
2023-02-18T12:38:47.586Z,1.40
2023-02-18T12:41:29.526Z,1.30
2023-02-18T12:43:56.183Z,1.20
2023-02-18T12:46:52.582Z,1.42
2023-02-18T12:49:28.176Z,1.42
2023-02-18T12:52:32.380Z,1.55
2023-02-18T12:55:18.345Z,1.38
2023-02-18T12:58:05.138Z,1.30
2023-02-18T13:00:37.686Z,1.50
2023-02-18T13:03:27.767Z,1.52
2023-02-18T13:05:56.817Z,1.63
2023-02-18T13:08:47.523Z,1.23
2023-02-18T13:11:40.282Z,1.55
2023-02-18T13:14:21.614Z,1.63
2023-02-18T13:16:52.615Z,1.33
2023-02-18T13:19:27.002Z,2.00
2023-02-18T13:21:58.785Z,1.05
2023-02-18T13:24:37.323Z,1.90
2023-02-18T13:27:44.033Z,1.15
2023-02-18T13:30:19.576Z,1.00
2023-02-18T13:33:07.941Z,1.48
2023-02-18T13:35:44.550Z,1.65
2023-02-18T13:38:35.035Z,1.50
2023-02-18T13:41:02.451Z,1.33
2023-02-18T13:43:33.204Z,1.50
2023-02-18T13:46:14.458Z,1.17
2023-02-18T13:48:47.636Z,1.15
2023-02-18T13:51:35.919Z,1.80
2023-02-18T13:54:26.718Z,1.63
2023-02-18T13:56:55.075Z,1.20
2023-02-18T13:59:47.573Z,1.55
2023-02-18T14:02:20.497Z,1.60
2023-02-18T14:04:47.365Z,1.52
2023-02-18T14:07:33.058Z,1.73
2023-02-18T14:10:01.549Z,1.40
2023-02-18T14:12:33.192Z,1.40
2023-02-18T14:15:25.300Z,1.73
2023-02-18T14:18:07.110Z,1.23
2023-02-18T14:20:42.160Z,1.45
2023-02-18T14:23:40.954Z,1.40
2023-02-18T14:26:14.125Z,1.65
2023-02-18T14:28:45.275Z,1.77
2023-02-18T14:31:12.115Z,1.15
2023-02-18T14:33:50.846Z,1.65
2023-02-18T14:36:28.548Z,1.30
2023-02-18T14:38:59.743Z,1.25
2023-02-18T14:41:33.083Z,1.25
2023-02-18T14:44:18.337Z,1.38
2023-02-18T14:47:01.173Z,1.33
2023-02-18T14:49:52.014Z,1.90
2023-02-18T14:52:48.749Z,1.52
2023-02-18T14:55:22.659Z,1.13
2023-02-18T14:57:56.292Z,1.70
2023-02-18T15:00:32.206Z,1.90
2023-02-18T15:03:01.768Z,1.40
2023-02-18T15:05:30.821Z,1.15
2023-02-18T15:08:14.845Z,1.45
2023-02-18T15:10:46.254Z,1.27
2023-02-18T15:13:24.088Z,1.33
2023-02-18T15:16:06.284Z,1.75
2023-02-18T15:18:41.456Z,1.35
2023-02-18T15:21:18.027Z,1.60
2023-02-18T15:23:44.775Z,1.50
2023-02-18T15:26:17.625Z,1.38
2023-02-18T15:29:05.056Z,1.98
2023-02-18T15:31:39.647Z,1.65
2023-02-18T15:34:34.023Z,1.70
2023-02-18T15:37:02.037Z,1.65
2023-02-18T15:39:29.491Z,1.70
2023-02-18T15:42:00.163Z,1.90
2023-02-18T15:44:30.478Z,1.60
2023-02-18T15:47:03.665Z,1.58
2023-02-18T15:49:30.914Z,1.33
2023-02-18T15:52:02.254Z,1.33
2023-02-18T15:54:29.876Z,1.35
2023-02-18T15:57:00.587Z,1.38
2023-02-18T15:59:32.592Z,1.70
2023-02-18T16:02:08.343Z,1.40
2023-02-18T16:04:41.147Z,1.20
2023-02-18T16:07:23.079Z,1.42
2023-02-18T16:09:49.810Z,1.60
2023-02-18T16:12:30.454Z,1.40
2023-02-18T16:14:59.321Z,1.58
2023-02-18T16:17:29.737Z,1.85
2023-02-18T16:20:05.218Z,1.35
2023-02-18T16:22:32.301Z,1.30
2023-02-18T16:25:09.177Z,1.50
2023-02-18T16:27:38.300Z,1.40
2023-02-18T16:30:26.266Z,1.83
2023-02-18T16:32:54.299Z,1.20
2023-02-18T16:35:22.874Z,1.52
2023-02-18T16:37:52.214Z,1.88
2023-02-18T16:40:30.875Z,1.77
2023-02-18T16:43:02.514Z,1.70
2023-02-18T16:45:38.489Z,2.05
2023-02-18T16:48:06.173Z,2.00
2023-02-18T16:50:35.630Z,1.95
2023-02-18T16:53:02.245Z,1.65
2023-02-18T16:55:30.767Z,2.25
2023-02-18T16:57:57.739Z,1.85
2023-02-18T17:00:24.513Z,1.85
2023-02-18T17:02:56.075Z,2.15
2023-02-18T17:05:27.712Z,2.40
2023-02-18T17:07:58.712Z,2.30
2023-02-18T17:10:25.312Z,3.03
2023-02-18T17:12:51.850Z,2.42
2023-02-18T17:15:27.835Z,2.28
2023-02-18T17:17:54.587Z,2.92
2023-02-18T17:20:21.280Z,3.38
2023-02-18T17:22:47.823Z,3.95
2023-02-18T17:25:33.816Z,4.40
2023-02-18T17:28:01.132Z,4.93
2023-02-18T17:30:28.330Z,6.68
2023-02-18T17:32:55.221Z,7.78
2023-02-18T17:35:23.738Z,7.40
2023-02-18T17:37:53.100Z,7.60
2023-02-18T17:40:25.580Z,8.32
2023-02-18T17:42:54.786Z,8.43
2023-02-18T17:45:40.167Z,8.85
2023-02-18T17:48:06.717Z,8.98
2023-02-18T17:50:33.260Z,9.15
2023-02-18T17:53:02.361Z,8.85
2023-02-18T17:55:32.715Z,9.65
2023-02-18T17:57:59.606Z,9.82
2023-02-18T18:00:37.596Z,11.65
2023-02-18T18:03:07.476Z,11.48
2023-02-18T18:05:39.662Z,11.35
2023-02-18T18:08:09.093Z,11.68
2023-02-18T18:10:43.879Z,9.88
2023-02-18T18:13:37.709Z,10.13
2023-02-18T18:16:06.771Z,10.55
2023-02-18T18:18:36.951Z,10.73
2023-02-18T18:21:04.622Z,11.18
2023-02-18T18:23:32.875Z,10.88
2023-02-18T18:25:59.835Z,10.05
2023-02-18T18:28:27.231Z,10.65
2023-02-18T18:30:56.173Z,10.70
2023-02-18T18:33:28.573Z,10.73
2023-02-18T18:35:57.081Z,11.75
2023-02-18T18:38:25.640Z,11.30
2023-02-18T18:40:53.825Z,10.60
2023-02-18T18:43:32.952Z,11.02
2023-02-18T18:46:00.303Z,10.50
2023-02-18T18:48:27.053Z,10.65
2023-02-18T18:50:53.858Z,10.90
2023-02-18T18:53:26.706Z,11.35
2023-02-18T18:55:59.016Z,10.25
2023-02-18T18:58:25.992Z,11.75
2023-02-18T19:00:58.521Z,11.00
2023-02-18T19:03:26.727Z,10.63
2023-02-18T19:05:54.142Z,11.48
2023-02-18T19:08:20.864Z,11.10
2023-02-18T19:10:53.242Z,10.95
2023-02-18T19:13:23.769Z,11.10
2023-02-18T19:16:01.905Z,11.32
2023-02-18T19:18:29.968Z,11.52
2023-02-18T19:20:56.603Z,10.98
2023-02-18T19:23:23.147Z,12.20
2023-02-18T19:25:51.945Z,10.80
2023-02-18T19:28:20.570Z,11.52
2023-02-18T19:30:49.691Z,11.43
2023-02-18T19:33:19.658Z,11.88
2023-02-18T19:35:46.269Z,11.55
2023-02-18T19:38:15.787Z,11.73
2023-02-18T19:40:45.639Z,11.63
2023-02-18T19:43:12.808Z,11.57
2023-02-18T19:45:46.063Z,11.18
2023-02-18T19:48:15.889Z,11.43
2023-02-18T19:50:44.997Z,12.27
2023-02-18T19:53:12.244Z,11.32
2023-02-18T19:55:41.116Z,12.85
2023-02-18T19:58:07.840Z,11.65
2023-02-18T20:00:36.821Z,12.18
2023-02-18T20:03:03.412Z,11.68
2023-02-18T20:05:37.339Z,12.35
2023-02-18T20:08:06.103Z,11.02
2023-02-18T20:10:32.935Z,12.52
2023-02-18T20:12:59.578Z,11.60
2023-02-18T20:15:28.719Z,11.45
2023-02-18T20:17:55.328Z,12.45
2023-02-18T20:20:21.941Z,11.75
2023-02-18T20:22:49.254Z,11.75
2023-02-18T20:25:15.943Z,12.68
2023-02-18T20:27:58.224Z,11.65
2023-02-18T20:30:26.910Z,10.98
2023-02-18T20:32:55.762Z,11.48
2023-02-18T20:35:22.381Z,11.38
2023-02-18T20:37:48.916Z,12.07
2023-02-18T20:40:17.971Z,12.00
2023-02-18T20:42:44.519Z,11.60
2023-02-18T20:45:11.064Z,12.10
2023-02-18T20:47:39.844Z,11.15
2023-02-18T20:50:06.811Z,11.77
2023-02-18T20:52:34.751Z,11.15
2023-02-18T20:55:01.490Z,11.77
2023-02-18T20:57:28.109Z,11.25
2023-02-18T20:59:58.415Z,11.60
2023-02-18T21:02:25.027Z,11.13
2023-02-18T21:04:51.603Z,10.82
2023-02-18T21:07:18.113Z,11.20
2023-02-18T21:09:44.658Z,10.30
2023-02-18T21:12:11.199Z,12.48
2023-02-18T21:14:37.834Z,11.20
2023-02-18T21:17:04.496Z,11.73
2023-02-18T21:19:31.171Z,12.02
2023-02-18T21:21:57.660Z,11.63
2023-02-18T21:24:27.542Z,12.10
2023-02-18T21:26:54.133Z,11.57
2023-02-18T21:29:20.738Z,11.63
2023-02-18T21:31:47.423Z,12.63
2023-02-18T21:34:15.219Z,11.45
2023-02-18T21:36:43.217Z,12.57
2023-02-18T21:39:10.814Z,11.93
2023-02-18T21:41:40.812Z,12.30
2023-02-18T21:44:08.300Z,12.40
2023-02-18T21:46:36.485Z,12.32
2023-02-18T21:49:06.217Z,12.45
2023-02-18T21:51:59.144Z,12.60
2023-02-18T21:54:39.830Z,12.45
2023-02-18T21:57:11.665Z,13.13
2023-02-18T21:59:39.591Z,13.00
2023-02-18T22:02:10.093Z,13.38
2023-02-18T22:04:37.493Z,12.77
2023-02-18T22:07:04.297Z,13.80
2023-02-18T22:09:31.178Z,11.82
2023-02-18T22:11:57.712Z,12.57
2023-02-18T22:14:26.840Z,13.77
2023-02-18T22:16:53.503Z,11.45
2023-02-18T22:19:20.222Z,12.70
2023-02-18T22:21:49.278Z,12.98
2023-02-18T22:24:16.916Z,13.07
2023-02-18T22:26:46.710Z,14.20
2023-02-18T22:29:14.588Z,14.23
2023-02-18T22:31:41.765Z,13.32
2023-02-18T22:34:09.118Z,13.57
2023-02-18T22:36:35.648Z,13.93
2023-02-18T22:39:03.088Z,12.65
2023-02-18T22:41:32.173Z,13.90
2023-02-18T22:44:06.587Z,13.63
2023-02-18T22:46:35.429Z,14.57
2023-02-18T22:49:04.296Z,13.70
2023-02-18T22:51:38.343Z,14.48
2023-02-18T22:54:10.568Z,13.40
2023-02-18T22:56:37.289Z,12.82
2023-02-18T22:59:03.880Z,13.27
2023-02-18T23:01:33.263Z,13.43
2023-02-18T23:04:08.167Z,13.75
2023-02-18T23:06:38.316Z,13.23
2023-02-18T23:09:07.003Z,12.45
2023-02-18T23:11:34.286Z,13.13
2023-02-18T23:14:19.032Z,13.50
2023-02-18T23:17:06.208Z,12.13
2023-02-18T23:19:36.504Z,12.73
2023-02-18T23:22:03.765Z,13.52
2023-02-18T23:24:33.550Z,13.63
2023-02-18T23:27:00.261Z,12.55
2023-02-18T23:29:29.643Z,13.27
2023-02-18T23:31:56.278Z,11.68
2023-02-18T23:34:22.917Z,12.18
2023-02-18T23:36:49.563Z,10.43
2023-02-18T23:39:20.076Z,10.85
2023-02-18T23:41:49.994Z,10.32
2023-02-18T23:44:21.108Z,9.20
2023-02-18T23:46:48.090Z,8.52
2023-02-18T23:49:19.693Z,8.50
2023-02-18T23:51:48.484Z,6.90
2023-02-18T23:54:17.656Z,7.35
2023-02-18T23:56:47.951Z,8.27
2023-02-18T23:59:14.690Z,7.18
